Gaslog data for Blazin blue 08 5spd yaris lifback

Go Back   Gas Savers - Fuel Efficiency Forum > Garage > Blazin blue 08 5spd yaris lifback
Add Garage Entry Top Ten Entries Search the Garage


Welcome, non logged-in user
Your Garage


Gaslog data for Blazin blue 08 5spd yaris lifback
Date Distance Fuel Used Cost of Fuel Notes MPG(US)
10/22/2010 406.3 9.8 3.019Dalles to eugene, and then around town for a week41.45
10/17/2010 268.8 6.886 3.079spokane to dalles39.03
10/17/2010 332.5 8.8 3.199Dalles to spokane37.78
10/15/2010 197.1 5.196 3.079Eugene to dalles37.93
10/15/2010 171.8 4.083 3.079 42.07
09/26/2010 455 10.74 2.999 42.36
09/19/2010 431.6 10.431 2.999 41.37
09/11/2010 344.2 8.34 2.999 41.27
09/03/2010 433.7 10.141 2.999moved, route to work changed, longer drive to work, mostly highway.42.76
08/12/2010 443.4 10.46 3.059 42.39
07/16/2010 431.5 9.9 2.999 43.58
07/12/2010 444.6 10.107 2.959Trip to coast and around town.43.98
07/05/2010 452.8 10.36 3.1 43.70
06/29/2010 519.6 14.3 2.999Spokane to Eugene, AC, and GF driving.36.33
06/27/2010 270.3 6.749 2.999Trip to Spokane, and around town40.05
06/25/2010 208.4 5.1 2.959Trip to Spokane, A/C part of the time, GF driving part of the time.40.86
06/25/2010 321.7 7.741 3.099Around town, and to Newport41.55
06/24/2010 396 9.633 2.959 41.10
06/19/2010 270.1 7.308 3.039Spokane to the Dalles.36.95
06/19/2010 458.6 10.279 2.949Traveling around BC/Alberta Canada, then back to Spokane. Car at 51,000 miles44.61
06/16/2010 438 9.606 3.86Driving around Canada (Fairmont to Banff)45.59
06/13/2010 396 8.904 3.993Spokane to Fairmont, BC44.47
06/11/2010 371.3 8.353 2.959Trip up to Spokane, and around town44.45
06/09/2010 358.9 8.337 2.999Trip to Spokane43.04
06/06/2010 408 10.388 2.999speeding up I-5 From Eugene to Mt. St Helens and back for a car meet.39.27
06/05/2010 418.5 9.397 2.959 44.53
06/01/2010 429.9 9.897 2.999just driving to work and back + 60miles on I-5. Daily temps have slightly risen... 60F on average. Few days in the 70's-80's.43.43
05/22/2010 410.9 9.938 3.039 41.34
05/11/2010 455.6 11.007 3.059 41.39
05/04/2010 519.9 12.9 3.06trip from portland, then back again, and back home to Eugene. Most of the tank was Cheap Fred Myer gas.... kinda surprised my mpg's isn't lower.40.30
05/01/2010 288.4 7.049 2.769Another Trip to Portland.40.91
04/23/2010 437.8 10.848 2.999 40.35
04/17/2010 288 6.927 2.999now running Mobil1 on 10k intervals, with 5k oil filter intervals.41.57
04/10/2010 360.2 9.16 2.959trip to portland & back 45,500 miles39.32
04/07/2010 403.1 10.436 2.959trip to portland and back.38.62
04/01/2010 417.7 10.671 2.899 39.14
03/23/2010 171.3 4.14 2.899trip to spokane 44,000 miles on car41.37
03/23/2010 272.4 7.315 2.939trip to spokane, GF driving37.23
03/20/2010 284.1 8.302 2.999trip to spokane34.22
03/19/2010 384.3 9.474 2.899 40.56
03/19/2010 200.8 5.24 2.939Trip to spokane38.32
03/06/2010 443.4 10.759 2.899new air filter41.21
02/27/2010 414 10.742 2.859 38.54
02/15/2010 295.2 8.042 2.779Trip to Spokane36.70
02/14/2010 353.6 10.079 2.689Trip to spokane35.08
02/12/2010 211.3 5.527 2.779Trip to Spokane now using synth 5w2038.23
02/12/2010 362.9 9.693 2.839last tank on 5w3037.43
01/15/2010 382.7 10.227 2.809 37.42
01/05/2010 389.1 10.417 2.839 37.35
12/24/2009 200.8 5.622 2.799 35.71
12/21/2009 386.8 10.037 2.779last tank on stock tires over 40,000 miles on car38.53
11/28/2009 404.3 10.175 2.799 39.73
11/18/2009 414.7 10.278 2.899Recent oil change... but regular dino 5w30, not synth like usual.40.34
11/07/2009 439.5 10.558 2.799 41.62
10/22/2009 443.3 10.96 2.799 40.44
10/15/2009 444.5 10.662 2.85970% highway driving @ 60-70mph41.69
09/26/2009 443.7 10.072 2.899 44.05
09/12/2009 477.1 10.816 2.939 44.11
09/07/2009 395.9 10.308 2.939 38.40
08/25/2009 452.2 10.578 2.789trip to portland and back, plus around town.42.74
08/15/2009 390.4 8.619 2.799 45.29
08/09/2009 449.7 10.25 2.899Eugene to Seattle, and halfway back again. New oil change, Tire PSI at max tread rating.43.87
08/06/2009 446.3 9.791 2.799 45.58
07/24/2009 414.3 8.9 2.739still using new route to work. Using normal roads, 35-45mph instead of 55mph highways. Trip takes 5 minutes longer. Have found to different routes that work well, Not sure which is best.46.55
07/18/2009 434 9.787 2.739last half of tank I started to drive a new route to/from work. trip averages seem to have risen from 40-44mpg up to 48-52mpg.44.34
07/06/2009 376.8 8.283 2.799Trip to Indigo Lake and back... then to the ocean and back, plus some city driving.45.49
06/29/2009 414.8 10.236 2.769eugene to spokane... and around spokane.40.52
06/26/2009 257.3 6.56 2.899eugene to spokane39.22
06/25/2009 433 10.588 2.799 40.89
06/17/2009 410.6 10.191 2.859trip back from Seattle40.29
06/13/2009 414.7 10.212 2.939Trip to Seattle40.60
06/08/2009 358.1 8.611 2.759first tank running penzoil platnum, tires @ 40psi41.58
05/28/2009 383.5 9.227 2.66 41.56
05/15/2009 181.6 4.497 2.479 40.38
05/09/2009 296.2 7.573 2.459Umatilla to springfield, with AC, + 75lb dog39.11
05/09/2009 291.8 7.913 2.369springfield to umatilla, with tinted windows and no AC36.87
05/09/2009 347.7 8.802 2.459normal eugene driving.39.50
05/03/2009 235.8 6.331 1.999to spokane, and around spokane.37.24
05/01/2009 373.7 10.085 2.389eugene to spokane on a friday night37.05
04/30/2009 268.9 6.551 2.299 41.04
04/21/2009 410 9.82 2.239temps 40-70F41.75
04/09/2009 402.6 9.286 2.299took a 260mi trip to the beach. First tank with the ScanGuage installed.43.35
04/02/2009 394.7 9.913 2.199Subs in car, tires @ 44psi, temps around 50, New oil39.81
03/19/2009 401.8 10.562 2.159Tires at 40psi weather in 50's & rainy New oil change38.04
03/06/2009 413.5 10.113 2.159weather in the 40's-50's. Went a long time without driving due to registration transfer issues (from state to state).40.88
02/04/2009 419.8 10.621 1.999weather around 40 F.39.52
01/24/2009 423.8 11.047 2.059 38.36
01/02/2009 378.9 9.617 1.799 39.39
12/23/2008 399 10.647 1.799past few tanks I've had to use the defrost function alot which uses the A/C. Temps still hover around 30-40F. Tires still at 44psi.37.47
12/08/2008 410.6 10.504 1.799 39.08
11/29/2008 268 7.445 2.149Spokane back to Eugene @ 80mph35.99
11/29/2008 226.9 6.451 1.539Eugene to Spokane trip @ 80mph35.17
11/26/2008 363.7 10.204 1.999Trip from Eugene to spokane for thanksgiving. Stop & go traffic for 1.5hrs (avg'd 10mph). 2 people + 70lb dog. Avg cruising speed 70-80mph35.64
11/26/2008 78.1 2.069 1.979tires at 44psi37.74
11/23/2008 366.8 8.981 2.079tire pressure @ 36psi40.84
11/11/2008 432.2 10.708 2.399temps around 50F, and rainy most days now.40.36
11/03/2008 362.9 8.815 2.5492/3rds of tank were driving in rainy weather from eugene to portland & back.41.16
10/28/2008 398.4 9.113 2.859first tank with pressure back up to 42 psi. first half of tank was spent driving from eugene to smith rocks & back. Trip requires going over the Oregon Cascade mountain range.43.71
10/24/2008 192 4.745 2.979right before filling up I added air to the tires. Weather is cooler, and so the PSI had dropped down to 32. Pumped tires up to 42psi.40.46
10/16/2008 443.2 10.327 3.299 42.91
09/30/2008 452 10.889 3.539this was my 1st tank of the Sequential bio fuel (E10 additive from recycled bio products). was a bit more aggressive on this tank than usual cause I was running late/ in a hurry most days to work.41.50
09/17/2008 451 10.385 3.75First tank using the recycled bio-ethanol E10 additive gas from sequential. Had a $5 off coupon, so cost per gallon was much cheaper on this tank. The next tank will be the first tank to see if there is a noticeable difference between the recycled ethanol & normal E10 additive.43.42
09/05/2008 368.8 8.536 3.759Still tryin to hit 45.... might take out the spare tire.... Think i'll add a lil bit of oil, think the dealership left it a little too dry when I had it changed.43.20
08/31/2008 291.2 6.655 3.619This was that tank of Cheap ARCO 89octane stuff. Drove to the coast and back with the GF & Dog.... was trying to use more coasting instead of DFCO to see if it'd improve gas milage.... yeah too many variables at once. Going back to 87 chevron now.43.75
08/27/2008 366.3 8.885 3.679I now have a small sub box which prolly weighs 40-50 lbs total. Hoping next tank will be over 45mpg41.22
08/22/2008 375.3 9.653 3.959 38.87
08/17/2008 270.2 6.934 4.039Driving 80mph from spokane to eugene. Last trip for moving stuff from house to house.38.96
08/15/2008 324.6 9.165 4.079Driving 80-90mph with passenger & dog from Eugene to Spokane. Also got caught in Portland rush hour on friday night.... Not so good for mpg's.35.41
08/15/2008 226.9 5.073 3.999just put in mobil 1 synthetic, and repaired an axle seal.44.72
08/11/2008 395.9 9.218 3.999%80 of tank had 1 passenger, 1 70# dog, and camping gear. Also drove on gravel roads in hilly terrain, wasn't driving conservatively much of the time.42.94
08/08/2008 416.2 9.804 4.029Driving around Eugene42.45
08/02/2008 354.5 8.815 3.999fully packed, driving to Eugene OR, no a/c.40.21
08/01/2008 218.8 5.268 4.099 41.53
07/20/2008 355.3 9.32 4.15Last bit of the trip to Eugene and some driving around town. Spare tire back in the car, AC on 80% of the time.38.12
07/18/2008 329.3 8.407 4.199Trip back from Eugene, A/C was on39.16
07/17/2008 371.9 9.798 4.319Trip to Eugene, A/C was on37.95
07/16/2008 433 10.8 4.419Trip to Eugene, A/C was on40.09
07/11/2008 451 10.4 4.19took the spare tire out of the car for this tank43.36


All times are GMT -6. The time now is 08:27 AM.


Copyright 2005-2008 GasSavers.Org